Time;durP1;ratioP1;P1;durP2;ratioP2;P2;SDS_P1;SDS_P2;PMS_P1;PMS_P2;Temp;Humidity;BMP_temperature;BMP_pressure;BME280_temperature;BME280_humidity;BME280_pressure;Samples;Min_cycle;Max_cycle;Signal;HPM_P1;HPM_P2
2024/01/10 00:21:52;;;;;;;12.2;5.6;;;;;;;;;;;;;-79
2024/01/10 00:51:51;;;;;;;15.3;6.6;;;;;;;;;;;;;-80
2024/01/10 01:21:53;;;;;;;12.4;5.9;;;;;;;;;;;;;-79
2024/01/10 01:52:00;;;;;;;12.6;6;;;;;;;;;;;;;-80
2024/01/10 02:21:46;;;;;;;12.7;5;;;;;;;;;;;;;-80
2024/01/10 02:51:57;;;;;;;12.9;5.6;;;;;;;;;;;;;-79
2024/01/10 03:21:50;;;;;;;12.3;5.4;;;;;;;;;;;;;-79
2024/01/10 03:51:41;;;;;;;13.9;5.6;;;;;;;;;;;;;-79
2024/01/10 04:21:47;;;;;;;13.8;5.1;;;;;;;;;;;;;-80
2024/01/10 04:51:37;;;;;;;9.8;4.3;;;;;;;;;;;;;-80
2024/01/10 05:21:41;;;;;;;9.3;4;;;;;;;;;;;;;-81
2024/01/10 05:51:37;;;;;;;12.3;4.7;;;;;;;;;;;;;-80
2024/01/10 06:21:48;;;;;;;9.4;4.2;;;;;;;;;;;;;-80
2024/01/10 06:51:39;;;;;;;9.6;4.2;;;;;;;;;;;;;-80
2024/01/10 07:21:35;;;;;;;8.4;3.9;;;;;;;;;;;;;-80
2024/01/10 07:51:34;;;;;;;10.9;5;;;;;;;;;;;;;-79
2024/01/10 08:21:36;;;;;;;12.1;5.3;;;;;;;;;;;;;-79
2024/01/10 08:51:28;;;;;;;12.2;5.2;;;;;;;;;;;;;-81
2024/01/10 09:21:31;;;;;;;14.3;5.7;;;;;;;;;;;;;-80
2024/01/10 09:51:29;;;;;;;13.8;5.7;;;;;;;;;;;;;-79
2024/01/10 10:21:34;;;;;;;12.6;5.7;;;;;;;;;;;;;-78
2024/01/10 10:51:44;;;;;;;15;6.8;;;;;;;;;;;;;-80
2024/01/10 11:21:32;;;;;;;14.3;7;;;;;;;;;;;;;-81
2024/01/10 11:51:29;;;;;;;13;6.5;;;;;;;;;;;;;-80
2024/01/10 12:21:47;;;;;;;14.7;5.8;;;;;;;;;;;;;-80
2024/01/10 13:21:26;;;;;;;12.5;5.8;;;;;;;;;;;;;-80
2024/01/10 13:51:33;;;;;;;12.6;6.2;;;;;;;;;;;;;-81
2024/01/10 14:21:36;;;;;;;16.6;6.8;;;;;;;;;;;;;-81
2024/01/10 14:51:35;;;;;;;12.5;5.5;;;;;;;;;;;;;-78
2024/01/10 15:51:18;;;;;;;12.5;5.3;;;;;;;;;;;;;-80
2024/01/10 16:21:26;;;;;;;12;5.3;;;;;;;;;;;;;-80
2024/01/10 16:51:21;;;;;;;15;5.5;;;;;;;;;;;;;-78
2024/01/10 17:21:21;;;;;;;13.2;5;;;;;;;;;;;;;-79
2024/01/10 17:51:27;;;;;;;13.6;5.4;;;;;;;;;;;;;-80
2024/01/10 18:21:16;;;;;;;14.7;5.2;;;;;;;;;;;;;-81
2024/01/10 18:51:14;;;;;;;13.9;5.8;;;;;;;;;;;;;-80
2024/01/10 19:21:12;;;;;;;15.7;5.8;;;;;;;;;;;;;-81
2024/01/10 19:51:12;;;;;;;16.2;6.2;;;;;;;;;;;;;-80
2024/01/10 20:21:12;;;;;;;21.5;6.7;;;;;;;;;;;;;-80
2024/01/10 20:51:10;;;;;;;20.4;7.3;;;;;;;;;;;;;-81
2024/01/10 21:21:08;;;;;;;17.7;6.9;;;;;;;;;;;;;-81
2024/01/10 21:51:18;;;;;;;21.6;8;;;;;;;;;;;;;-80
2024/01/10 22:51:03;;;;;;;23.8;9.3;;;;;;;;;;;;;-81
2024/01/10 23:21:01;;;;;;;23.4;8.5;;;;;;;;;;;;;-79
2024/01/10 23:51:01;;;;;;;29.1;10.7;;;;;;;;;;;;;-79
